Time;durP1;ratioP1;P1;durP2;ratioP2;P2;SDS_P1;SDS_P2;PMS_P1;PMS_P2;Temp;Humidity;BMP_temperature;BMP_pressure;BME280_temperature;BME280_humidity;BME280_pressure;Samples;Min_cycle;Max_cycle;Signal;HPM_P1;HPM_P2
2022/11/21 00:01:32;;;;;;;17.33;4.32;;;;;;;4.82;100.00;100386.25;5057441;28;20040;-85
2022/11/21 00:03:57;;;;;;;14.73;4.10;;;;;;;4.80;100.00;100391.81;5057480;28;20044;-85
2022/11/21 00:06:23;;;;;;;13.30;4.20;;;;;;;4.79;100.00;100400.06;5073708;28;20037;-85
2022/11/21 00:08:49;;;;;;;13.87;3.60;;;;;;;4.74;100.00;100404.16;5075243;28;20433;-85
2022/11/21 00:11:15;;;;;;;21.67;4.43;;;;;;;4.72;100.00;100406.22;5074165;28;20127;-84
2022/11/21 00:13:41;;;;;;;22.80;4.28;;;;;;;4.67;100.00;100410.47;5074238;28;20048;-84
2022/11/21 00:16:09;;;;;;;17.80;3.90;;;;;;;4.62;100.00;100413.72;5057807;28;20404;-84
2022/11/21 00:18:35;;;;;;;18.75;4.15;;;;;;;4.55;100.00;100399.38;5074401;28;20067;-85
2022/11/21 00:21:12;;;;;;;17.60;4.30;;;;;;;4.53;100.00;100414.81;5073797;28;20480;-86
2022/11/21 00:23:38;;;;;;;17.87;4.97;;;;;;;4.59;100.00;100432.06;5074874;28;20043;-85
2022/11/21 00:26:09;;;;;;;18.02;4.72;;;;;;;4.67;100.00;100421.22;5073655;28;20041;-85
2022/11/21 00:28:35;;;;;;;24.17;4.95;;;;;;;4.73;100.00;100415.91;5074454;28;20040;-85
2022/11/21 00:31:00;;;;;;;20.58;4.45;;;;;;;4.80;100.00;100417.84;5073879;28;20083;-85
2022/11/21 00:33:26;;;;;;;20.85;4.07;;;;;;;4.81;100.00;100406.09;5073618;28;20066;-85
2022/11/21 00:35:51;;;;;;;20.87;4.30;;;;;;;4.79;100.00;100408.16;5075013;28;20044;-84
2022/11/21 00:38:17;;;;;;;19.40;3.70;;;;;;;4.74;100.00;100412.22;5073400;28;20457;-85
2022/11/21 00:40:43;;;;;;;18.77;4.13;;;;;;;4.68;100.00;100406.75;5056759;28;20044;-84
2022/11/21 00:43:09;;;;;;;15.45;3.95;;;;;;;4.63;100.00;100404.63;5073326;28;20041;-85
2022/11/21 00:45:34;;;;;;;22.55;4.03;;;;;;;4.61;100.00;100397.78;5073175;28;20060;-85
2022/11/21 00:48:00;;;;;;;30.60;5.13;;;;;;;4.59;100.00;100395.25;5056754;28;20040;-85
2022/11/21 00:50:25;;;;;;;20.13;4.07;;;;;;;4.61;100.00;100395.09;5039944;28;20456;-84
2022/11/21 00:52:55;;;;;;;20.97;3.77;;;;;;;4.62;100.00;100402.97;5073428;28;20048;-84
2022/11/21 00:55:21;;;;;;;18.83;4.80;;;;;;;4.60;100.00;100402.31;5074631;28;20279;-85
2022/11/21 00:57:46;;;;;;;16.88;3.28;;;;;;;4.54;100.00;100398.53;5072706;28;20068;-85
2022/11/21 01:00:13;;;;;;;35.53;4.10;;;;;;;4.46;100.00;100400.47;5056540;28;20123;-85
2022/11/21 01:02:38;;;;;;;29.50;3.58;;;;;;;4.38;100.00;100396.03;5057531;28;20041;-85
2022/11/21 01:05:04;;;;;;;20.13;3.83;;;;;;;4.31;100.00;100393.28;5073165;28;20540;-85
2022/11/21 01:07:29;;;;;;;18.02;3.72;;;;;;;4.26;100.00;100394.84;5056311;28;20599;-85
2022/11/21 01:09:55;;;;;;;28.37;4.13;;;;;;;4.19;100.00;100398.28;5073735;28;20029;-85
2022/11/21 01:12:20;;;;;;;35.47;4.33;;;;;;;4.18;100.00;100401.97;5072784;28;20040;-85
2022/11/21 01:14:46;;;;;;;16.65;3.40;;;;;;;4.17;100.00;100402.16;5072686;28;20047;-85
2022/11/21 01:17:11;;;;;;;20.80;3.43;;;;;;;4.18;100.00;100412.69;5073505;28;20047;-85
2022/11/21 01:19:37;;;;;;;25.27;4.03;;;;;;;4.22;100.00;100402.41;5072705;28;20041;-85
2022/11/21 01:22:02;;;;;;;27.80;3.57;;;;;;;4.29;100.00;100408.72;5072604;28;20040;-85
2022/11/21 01:24:28;;;;;;;21.63;3.92;;;;;;;4.32;100.00;100411.03;5072195;28;20071;-85
2022/11/21 01:26:54;;;;;;;28.90;4.43;;;;;;;4.32;100.00;100404.84;5055671;28;20033;-82
2022/11/21 01:29:19;;;;;;;22.13;3.63;;;;;;;4.32;100.00;100404.84;5072553;28;20075;-82
2022/11/21 01:31:45;;;;;;;21.73;3.37;;;;;;;4.28;100.00;100399.03;5072597;28;20040;-82
2022/11/21 01:34:10;;;;;;;18.73;4.33;;;;;;;4.24;100.00;100403.09;5056695;28;20040;-82
2022/11/21 01:36:36;;;;;;;22.05;4.28;;;;;;;4.18;100.00;100393.09;5072706;28;20048;-83
2022/11/21 01:39:04;;;;;;;28.57;4.07;;;;;;;4.14;100.00;100392.59;5038946;28;20048;-83
2022/11/21 01:41:38;;;;;;;19.63;3.40;;;;;;;4.09;100.00;100400.38;5072445;28;20032;-83
2022/11/21 01:44:16;;;;;;;18.67;3.87;;;;;;;4.10;100.00;100403.91;5072359;28;20052;-82
2022/11/21 01:46:41;;;;;;;17.88;3.47;;;;;;;4.09;100.00;100399.53;5072104;28;20051;-83
2022/11/21 01:49:09;;;;;;;16.93;3.20;;;;;;;4.09;100.00;100403.06;5055353;28;20107;-83
2022/11/21 01:51:56;;;;;;;19.77;4.00;;;;;;;4.12;100.00;100407.22;5073706;28;20040;-83
2022/11/21 01:54:30;;;;;;;21.70;4.03;;;;;;;4.10;100.00;100393.16;5072682;28;20055;-83
2022/11/21 01:56:55;;;;;;;22.30;3.60;;;;;;;4.09;100.00;100400.38;5072316;28;20041;-82
2022/11/21 01:59:35;;;;;;;22.87;3.07;;;;;;;4.04;100.00;100395.56;5072269;28;20504;-82
2022/11/21 02:02:03;;;;;;;20.95;3.08;;;;;;;4.00;100.00;100388.91;5072563;28;20131;-83
2022/11/21 02:04:31;;;;;;;17.95;3.33;;;;;;;3.94;100.00;100396.84;5072282;28;20097;-82
2022/11/21 02:07:00;;;;;;;17.25;3.75;;;;;;;3.88;100.00;100398.41;5073258;28;20116;-82
2022/11/21 02:09:30;;;;;;;23.60;4.05;;;;;;;3.86;100.00;100392.41;5055475;28;20047;-82
2022/11/21 02:12:07;;;;;;;25.60;3.65;;;;;;;3.82;100.00;100400.00;5072126;28;20040;-83
2022/11/21 02:14:34;;;;;;;21.38;3.60;;;;;;;3.81;100.00;100403.69;5072469;28;20468;-82
2022/11/21 02:17:03;;;;;;;20.25;3.20;;;;;;;3.88;100.00;100411.00;5072438;28;20041;-83
2022/11/21 02:19:40;;;;;;;19.05;4.00;;;;;;;3.90;100.00;100409.81;5072154;28;20037;-83
2022/11/21 02:22:19;;;;;;;21.67;3.92;;;;;;;3.95;100.00;100418.13;5072419;28;20085;-83
2022/11/21 02:24:48;;;;;;;20.92;3.78;;;;;;;3.98;100.00;100414.25;5072988;28;20446;-83
2022/11/21 02:27:15;;;;;;;24.88;4.10;;;;;;;3.99;100.00;100421.31;5071996;28;20485;-83
2022/11/21 02:29:42;;;;;;;16.77;4.85;;;;;;;3.93;100.00;100413.97;5071529;28;20059;-83
2022/11/21 02:32:07;;;;;;;19.60;4.32;;;;;;;3.89;100.00;100410.81;5055962;28;20056;-83
2022/11/21 02:34:33;;;;;;;17.70;4.80;;;;;;;3.83;100.00;100416.91;5073868;28;20040;-83
2022/11/21 02:37:00;;;;;;;20.02;5.05;;;;;;;3.76;100.00;100406.06;5077124;28;20033;-83
2022/11/21 02:39:32;;;;;;;23.02;4.60;;;;;;;3.72;100.00;100411.97;5076213;28;20281;-82
2022/11/21 02:42:16;;;;;;;24.63;5.13;;;;;;;3.68;100.00;100406.97;5076020;28;20480;-83
2022/11/21 02:45:08;;;;;;;16.60;4.38;;;;;;;3.66;100.00;100418.88;5075901;28;20053;-83
2022/11/21 02:47:35;;;;;;;31.30;6.95;;;;;;;3.68;100.00;100414.19;5075837;28;20044;-83
2022/11/21 02:50:14;;;;;;;22.45;5.28;;;;;;;3.73;100.00;100421.69;5075153;28;20036;-83
2022/11/21 02:52:39;;;;;;;26.40;6.00;;;;;;;3.73;100.00;100416.34;5076866;28;20496;-83
2022/11/21 02:55:05;;;;;;;28.13;8.13;;;;;;;3.75;100.00;100419.66;5076768;28;20032;-83
2022/11/21 02:57:31;;;;;;;20.65;7.43;;;;;;;3.78;100.00;100417.47;5075056;28;20041;-83
2022/11/21 02:59:57;;;;;;;33.97;9.63;;;;;;;3.81;100.00;100413.56;5075348;28;20029;-82
2022/11/21 03:02:22;;;;;;;52.30;11.40;;;;;;;3.77;100.00;100414.97;5058603;28;20082;-82
2022/11/21 03:04:47;;;;;;;51.70;11.82;;;;;;;3.74;100.00;100413.47;5075215;28;20354;-83
2022/11/21 03:07:13;;;;;;;48.93;13.00;;;;;;;3.73;100.00;100403.75;5076228;28;20036;-83
2022/11/21 03:09:38;;;;;;;49.73;13.27;;;;;;;3.73;100.00;100417.16;5076427;28;20033;-83
2022/11/21 03:12:08;;;;;;;38.65;12.90;;;;;;;3.77;100.00;100413.09;5058472;28;20580;-83
2022/11/21 03:14:35;;;;;;;65.40;12.70;;;;;;;3.78;100.00;100419.28;5058408;28;20048;-82
2022/11/21 03:17:01;;;;;;;83.38;13.60;;;;;;;3.81;100.00;100408.19;5075020;28;20468;-83
2022/11/21 03:19:27;;;;;;;81.95;15.85;;;;;;;3.84;100.00;100407.84;5075504;28;20094;-82
2022/11/21 03:21:52;;;;;;;155.97;17.60;;;;;;;3.83;100.00;100403.50;5076292;28;20036;-83
2022/11/21 03:24:18;;;;;;;98.53;16.30;;;;;;;3.84;100.00;100415.91;5075748;28;20106;-83
2022/11/21 03:26:43;;;;;;;68.97;16.00;;;;;;;3.86;100.00;100414.69;5058222;28;20040;-83
2022/11/21 03:29:08;;;;;;;64.88;17.52;;;;;;;3.88;100.00;100394.91;5074908;28;20110;-83
2022/11/21 03:31:34;;;;;;;115.67;18.87;;;;;;;3.88;100.00;100400.25;5058328;28;20048;-83
2022/11/21 03:33:59;;;;;;;96.47;18.07;;;;;;;3.85;100.00;100396.94;5074922;28;20414;-83
2022/11/21 03:36:25;;;;;;;70.22;17.83;;;;;;;3.88;100.00;100405.63;5074702;28;20079;-83
2022/11/21 03:38:50;;;;;;;97.40;18.40;;;;;;;3.82;100.00;100394.63;5057984;28;20365;-83
2022/11/21 03:41:28;;;;;;;84.07;18.53;;;;;;;3.85;100.00;100401.44;5075661;28;20067;-83
2022/11/21 03:43:57;;;;;;;69.95;19.02;;;;;;;3.89;100.00;100391.19;5061458;28;20086;-83
2022/11/21 03:46:23;;;;;;;88.70;18.45;;;;;;;3.89;100.00;100392.03;5077633;28;20044;-83
2022/11/21 03:48:49;;;;;;;94.97;18.07;;;;;;;3.88;100.00;100397.56;5061173;28;20097;-83
2022/11/21 03:51:14;;;;;;;97.05;19.38;;;;;;;3.88;100.00;100400.25;5077888;28;20046;-83
2022/11/21 03:53:40;;;;;;;90.70;18.87;;;;;;;3.88;100.00;100398.41;5060760;28;20036;-83
2022/11/21 03:56:05;;;;;;;73.77;17.87;;;;;;;3.89;100.00;100404.63;5096098;28;20036;-83
2022/11/21 03:58:31;;;;;;;91.45;19.15;;;;;;;3.89;100.00;100407.31;5060497;28;20523;-83
2022/11/21 04:00:56;;;;;;;76.95;17.33;;;;;;;3.92;100.00;100409.63;5060927;28;20036;-83
2022/11/21 04:03:22;;;;;;;94.00;17.70;;;;;;;3.92;100.00;100413.13;5077532;28;20517;-84
2022/11/21 04:05:47;;;;;;;52.83;17.07;;;;;;;3.92;100.00;100413.13;5095363;28;20066;-83
2022/11/21 04:08:13;;;;;;;82.83;18.30;;;;;;;3.94;100.00;100415.63;5077323;28;20031;-83
2022/11/21 04:10:38;;;;;;;63.70;17.88;;;;;;;3.94;100.00;100400.38;5060698;28;20273;-83
2022/11/21 04:13:03;;;;;;;70.30;17.17;;;;;;;3.95;100.00;100395.84;5060692;28;20048;-83
2022/11/21 04:15:29;;;;;;;86.80;18.33;;;;;;;3.94;100.00;100400.38;5060622;28;20036;-83
2022/11/21 04:17:54;;;;;;;72.87;17.60;;;;;;;3.93;100.00;100401.38;5060809;28;20033;-83
2022/11/21 04:20:20;;;;;;;80.23;18.43;;;;;;;3.95;100.00;100411.94;5076867;28;20381;-83
2022/11/21 04:22:45;;;;;;;92.13;17.73;;;;;;;3.94;100.00;100410.25;5094951;28;20270;-83
2022/11/21 04:25:12;;;;;;;76.53;17.50;;;;;;;3.98;100.00;100400.84;5060446;28;20036;-83
2022/11/21 04:27:38;;;;;;;78.60;17.40;;;;;;;3.96;100.00;100405.56;5076980;28;20035;-83
2022/11/21 04:30:04;;;;;;;76.43;18.13;;;;;;;3.98;100.00;100403.50;5060249;28;20036;-83
2022/11/21 04:32:29;;;;;;;68.57;17.35;;;;;;;4.00;100.00;100390.72;5076889;28;20039;-85
2022/11/21 04:34:54;;;;;;;82.60;19.00;;;;;;;4.01;100.00;100387.03;5060273;28;20473;-86
2022/11/21 04:37:20;;;;;;;92.43;17.73;;;;;;;3.98;100.00;100369.44;5076817;28;20059;-86
2022/11/21 04:39:45;;;;;;;79.47;17.57;;;;;;;3.99;100.00;100383.72;5076715;28;20052;-86
2022/11/21 04:42:11;;;;;;;102.38;18.00;;;;;;;3.92;100.00;100369.34;5059781;28;20502;-85
2022/11/21 04:44:36;;;;;;;105.17;18.40;;;;;;;3.85;100.00;100366.56;5076472;28;20032;-86
2022/11/21 04:47:02;;;;;;;79.10;17.20;;;;;;;3.76;100.00;100367.66;5094846;28;20089;-86
2022/11/21 04:49:27;;;;;;;66.10;17.20;;;;;;;3.73;100.00;100368.03;5077151;28;20089;-85
2022/11/21 04:51:52;;;;;;;89.82;16.48;;;;;;;3.63;100.00;100357.53;5076546;28;20491;-86
2022/11/21 04:54:18;;;;;;;53.50;16.42;;;;;;;3.56;100.00;100361.97;5059787;28;20472;-86
2022/11/21 04:56:43;;;;;;;54.17;15.30;;;;;;;3.49;100.00;100361.88;5060066;28;20432;-85
2022/11/21 04:59:10;;;;;;;87.27;17.03;;;;;;;3.43;100.00;100362.59;5075622;28;20052;-85
2022/11/21 05:01:36;;;;;;;65.57;15.93;;;;;;;3.38;100.00;100354.25;5059615;28;20097;-85
2022/11/21 05:04:02;;;;;;;73.88;15.85;;;;;;;3.38;100.00;100365.84;5075980;28;20032;-86
2022/11/21 05:06:27;;;;;;;78.30;16.57;;;;;;;3.34;100.00;100361.84;5059622;28;20055;-86
2022/11/21 05:08:55;;;;;;;147.57;17.00;;;;;;;3.28;100.00;100360.69;5076129;28;20028;-85
2022/11/21 05:14:25;;;;;;;69.45;15.38;;;;;;;3.24;100.00;100351.34;4992527;28;20046;-86
2022/11/21 05:16:51;;;;;;;93.70;16.13;;;;;;;3.25;100.00;100350.34;4992678;28;20128;-85
2022/11/21 05:19:17;;;;;;;84.07;14.98;;;;;;;3.26;100.00;100343.97;5033612;28;20057;-86
2022/11/21 05:21:42;;;;;;;64.43;16.13;;;;;;;3.32;100.00;100342.38;5076044;28;20032;-86
2022/11/21 05:24:08;;;;;;;46.92;13.65;;;;;;;3.30;100.00;100337.22;5059229;28;20040;-86
2022/11/21 05:26:33;;;;;;;59.83;16.00;;;;;;;3.35;100.00;100344.72;5076683;28;20032;-85
2022/11/21 05:29:01;;;;;;;42.50;16.53;;;;;;;3.39;100.00;100337.97;5076147;28;20035;-86
2022/11/21 05:31:29;;;;;;;48.97;16.45;;;;;;;3.43;100.00;100341.16;5076497;28;20047;-86
2022/11/21 05:33:54;;;;;;;36.92;13.82;;;;;;;3.40;100.00;100328.94;5042916;28;20040;-86
2022/11/21 05:36:20;;;;;;;38.50;14.13;;;;;;;3.36;100.00;100327.59;5059297;28;20051;-85
2022/11/21 05:38:45;;;;;;;33.57;14.10;;;;;;;3.30;100.00;100326.47;5075827;28;20545;-86
2022/11/21 05:41:10;;;;;;;33.17;12.80;;;;;;;3.28;100.00;100315.13;5076001;28;20392;-86
2022/11/21 05:43:45;;;;;;;34.53;12.57;;;;;;;3.30;100.00;100321.13;5075795;28;20391;-86
2022/11/21 05:46:18;;;;;;;33.78;13.25;;;;;;;3.28;100.00;100315.13;5060348;28;20048;-86
2022/11/21 05:48:45;;;;;;;30.90;12.40;;;;;;;3.30;100.00;100321.13;5075986;28;20064;-85
2022/11/21 05:51:14;;;;;;;30.67;11.32;;;;;;;3.34;100.00;100319.75;5075920;28;20050;-86
2022/11/21 05:53:39;;;;;;;27.85;11.95;;;;;;;3.34;100.00;100322.44;5075923;28;20044;-86
2022/11/21 05:56:07;;;;;;;31.23;10.97;;;;;;;3.38;100.00;100314.88;5058986;28;20388;-85
2022/11/21 05:58:35;;;;;;;33.50;10.98;;;;;;;3.45;100.00;100317.66;5075460;28;20085;-86
2022/11/21 06:01:04;;;;;;;26.20;10.68;;;;;;;3.49;100.00;100303.69;5058843;28;20071;-86
2022/11/21 06:03:34;;;;;;;30.70;11.30;;;;;;;3.53;100.00;100309.53;5075520;28;20305;-86
2022/11/21 06:06:01;;;;;;;32.60;11.47;;;;;;;3.56;100.00;100306.47;5075574;28;20036;-85
2022/11/21 06:08:27;;;;;;;50.17;13.02;;;;;;;3.62;100.00;100316.47;5093262;28;20039;-84
2022/11/21 06:10:53;;;;;;;36.92;13.38;;;;;;;3.71;100.00;100317.22;5063740;28;20040;-84
2022/11/21 06:13:21;;;;;;;34.83;13.53;;;;;;;3.75;100.00;100310.50;5097666;28;20173;-85
2022/11/21 06:16:08;;;;;;;38.28;14.75;;;;;;;3.84;100.00;100324.66;5079543;28;20773;-84
2022/11/21 06:18:36;;;;;;;41.70;14.50;;;;;;;3.88;100.00;100307.16;5080379;28;20039;-84
2022/11/21 06:21:04;;;;;;;41.97;15.18;;;;;;;3.90;100.00;100305.13;5079301;28;20035;-84
2022/11/21 06:23:30;;;;;;;45.58;14.93;;;;;;;3.90;100.00;100305.13;5079286;28;20031;-84
2022/11/21 06:26:00;;;;;;;44.83;16.00;;;;;;;3.86;100.00;100301.97;5063035;28;20468;-85
2022/11/21 06:28:29;;;;;;;47.25;16.80;;;;;;;3.84;100.00;100295.13;5079214;28;20344;-85
2022/11/21 06:30:54;;;;;;;49.08;16.60;;;;;;;3.81;100.00;100290.97;5079488;28;20040;-84
2022/11/21 06:33:20;;;;;;;46.57;16.93;;;;;;;3.76;100.00;100290.66;5079208;28;20200;-84
2022/11/21 06:35:45;;;;;;;51.38;17.42;;;;;;;3.82;100.00;100294.47;5079075;28;20472;-85
2022/11/21 06:38:17;;;;;;;48.78;17.52;;;;;;;3.79;100.00;100279.56;5079768;28;20036;-85
2022/11/21 06:40:43;;;;;;;50.00;17.52;;;;;;;3.82;100.00;100287.28;5097688;28;20149;-85
2022/11/21 06:43:08;;;;;;;48.42;16.48;;;;;;;3.78;100.00;100283.28;5097114;28;20062;-85
2022/11/21 06:45:34;;;;;;;44.43;16.97;;;;;;;3.76;100.00;100279.94;5061884;28;20133;-85
2022/11/21 06:48:01;;;;;;;41.50;15.40;;;;;;;3.73;100.00;100291.03;5062425;28;20127;-85
2022/11/21 06:50:28;;;;;;;42.33;16.77;;;;;;;3.72;100.00;100289.41;5063118;28;20430;-84
2022/11/21 06:52:56;;;;;;;42.22;16.65;;;;;;;3.71;100.00;100279.66;5078435;28;20122;-85
2022/11/21 06:55:22;;;;;;;44.90;17.05;;;;;;;3.72;100.00;100280.50;5096600;28;20036;-84
2022/11/21 06:57:47;;;;;;;49.37;17.00;;;;;;;3.69;100.00;100282.53;5078477;28;20043;-85
2022/11/21 07:00:13;;;;;;;43.80;16.90;;;;;;;3.67;100.00;100278.38;5078304;28;20032;-87
2022/11/21 07:02:39;;;;;;;41.80;16.77;;;;;;;3.66;100.00;100272.19;5079032;28;20127;-84
2022/11/21 07:05:04;;;;;;;38.90;16.33;;;;;;;3.64;100.00;100273.38;5079037;28;20068;-84
2022/11/21 07:07:30;;;;;;;45.63;15.05;;;;;;;3.66;100.00;100268.63;5078320;28;20507;-84
2022/11/21 07:09:55;;;;;;;40.93;15.27;;;;;;;3.65;100.00;100277.72;5078369;28;20396;-84
2022/11/21 07:15:13;;;;;;;43.53;15.55;;;;;;;3.68;100.00;100270.13;5067064;28;20502;-84
2022/11/21 07:17:38;;;;;;;42.45;14.80;;;;;;;3.69;100.00;100269.13;5078347;28;20377;-84
2022/11/21 07:20:04;;;;;;;41.20;15.20;;;;;;;3.71;100.00;100268.94;5044417;28;20092;-84
2022/11/21 07:22:30;;;;;;;44.90;14.98;;;;;;;3.76;100.00;100271.06;5077588;28;20044;-84
2022/11/21 07:24:55;;;;;;;44.37;15.50;;;;;;;3.77;100.00;100267.38;5078159;28;20044;-84
2022/11/21 07:27:20;;;;;;;37.27;14.27;;;;;;;3.79;100.00;100265.31;5095955;28;20040;-84
2022/11/21 07:29:46;;;;;;;42.40;14.20;;;;;;;3.84;100.00;100265.63;5061304;28;20131;-84
2022/11/21 07:32:11;;;;;;;44.10;14.27;;;;;;;3.87;100.00;100265.25;5078835;28;20040;-84
2022/11/21 07:34:36;;;;;;;41.70;14.10;;;;;;;3.92;100.00;100260.13;5061593;28;20145;-83
2022/11/21 07:37:02;;;;;;;41.87;13.80;;;;;;;3.94;100.00;100266.16;5061317;28;20036;-84
2022/11/21 07:39:27;;;;;;;43.97;13.67;;;;;;;3.94;100.00;100263.47;5060970;28;20050;-84
2022/11/21 07:41:53;;;;;;;35.27;12.13;;;;;;;3.95;100.00;100267.81;5061138;28;20131;-84
2022/11/21 07:44:18;;;;;;;28.47;12.00;;;;;;;3.98;100.00;100264.75;5077773;28;20048;-84
2022/11/21 07:46:43;;;;;;;32.20;11.07;;;;;;;4.01;100.00;100266.25;5077701;28;20032;-84
2022/11/21 07:49:09;;;;;;;30.50;11.80;;;;;;;3.98;100.00;100264.75;5060821;28;20149;-84
2022/11/21 07:51:34;;;;;;;28.47;10.27;;;;;;;4.01;100.00;100269.75;5060998;28;20036;-84
2022/11/21 07:53:59;;;;;;;28.40;11.17;;;;;;;4.04;100.00;100266.72;5060221;28;20087;-83
2022/11/21 07:56:25;;;;;;;28.97;9.60;;;;;;;4.07;100.00;100257.44;5077062;28;20086;-83
2022/11/21 07:58:51;;;;;;;31.13;10.60;;;;;;;4.08;100.00;100260.97;5060131;28;20477;-84
2022/11/21 08:01:17;;;;;;;23.20;9.18;;;;;;;4.10;100.00;100246.31;5060551;28;20051;-84
2022/11/21 08:03:42;;;;;;;26.50;11.00;;;;;;;4.09;100.00;100249.19;5060730;28;20036;-84
2022/11/21 08:06:11;;;;;;;27.58;9.82;;;;;;;4.08;100.00;100242.19;5077285;28;20040;-84
2022/11/21 08:08:36;;;;;;;27.63;9.70;;;;;;;4.03;100.00;100240.03;5077274;28;20110;-85
2022/11/21 08:11:06;;;;;;;26.77;8.35;;;;;;;3.96;100.00;100244.50;5060743;28;20105;-84
2022/11/21 08:13:34;;;;;;;23.40;8.40;;;;;;;3.93;100.00;100245.69;5076899;28;20036;-84
2022/11/21 08:16:02;;;;;;;21.40;8.55;;;;;;;3.91;100.00;100244.22;5077359;28;20115;-84
2022/11/21 08:18:30;;;;;;;24.05;8.27;;;;;;;3.88;100.00;100237.34;5077108;28;20392;-84
2022/11/21 08:20:55;;;;;;;19.45;7.32;;;;;;;3.88;100.00;100236.53;5094858;28;20093;-84
2022/11/21 08:23:21;;;;;;;28.27;8.50;;;;;;;3.88;100.00;100237.34;5094884;28;20032;-84
2022/11/21 08:25:46;;;;;;;24.80;8.53;;;;;;;3.88;100.00;100234.69;5076959;28;20043;-84
2022/11/21 08:28:12;;;;;;;25.55;8.45;;;;;;;3.88;100.00;100223.94;5076822;28;20031;-84
2022/11/21 08:30:38;;;;;;;23.23;7.43;;;;;;;3.92;100.00;100219.06;5077164;28;20495;-84
2022/11/21 08:33:05;;;;;;;27.70;8.10;;;;;;;3.91;100.00;100217.38;5060560;28;20043;-84
2022/11/21 08:35:30;;;;;;;24.75;7.57;;;;;;;3.92;100.00;100202.94;5076828;28;20040;-88
2022/11/21 08:37:57;;;;;;;22.73;7.43;;;;;;;3.94;100.00;100196.38;5076725;28;20155;-86
2022/11/21 08:40:28;;;;;;;21.20;7.65;;;;;;;3.91;100.00;100202.09;5076346;28;20043;-85
2022/11/21 08:42:58;;;;;;;19.73;7.60;;;;;;;3.94;100.00;100200.91;5077603;28;20400;-88
2022/11/21 08:45:24;;;;;;;19.73;7.03;;;;;;;3.92;100.00;100193.03;5089986;28;20055;-86
2022/11/21 08:47:52;;;;;;;24.88;7.53;;;;;;;3.94;100.00;100200.91;5059749;28;20052;-86
2022/11/21 08:50:18;;;;;;;24.33;7.97;;;;;;;3.97;100.00;100205.88;5076176;28;20060;-86
2022/11/21 08:52:44;;;;;;;18.60;6.90;;;;;;;3.99;100.00;100210.06;5075918;28;20063;-87
2022/11/21 08:55:09;;;;;;;21.58;7.20;;;;;;;4.00;100.00;100201.00;5059664;28;20361;-86
2022/11/21 08:57:38;;;;;;;25.03;7.10;;;;;;;4.04;100.00;100202.28;5075924;28;20039;-86
2022/11/21 09:00:05;;;;;;;20.10;6.97;;;;;;;4.07;100.00;100193.00;5076120;28;20126;-86
2022/11/21 09:02:30;;;;;;;21.30;6.88;;;;;;;4.08;100.00;100191.16;5075753;28;20388;-86
2022/11/21 09:04:56;;;;;;;18.83;5.40;;;;;;;4.09;100.00;100187.44;5059813;28;20472;-86
2022/11/21 09:07:21;;;;;;;17.63;6.60;;;;;;;4.12;100.00;100187.91;5076196;28;20459;-87
2022/11/21 09:09:49;;;;;;;24.40;6.67;;;;;;;4.15;100.00;100178.63;5075510;28;20318;-85
2022/11/21 09:12:14;;;;;;;16.60;6.63;;;;;;;4.17;100.00;100180.09;5075977;28;20274;-86
2022/11/21 09:20:10;;;;;;;16.50;5.75;;;;;;;4.32;100.00;100173.84;5094255;28;20632;-83
2022/11/21 09:22:35;;;;;;;14.87;5.47;;;;;;;4.45;100.00;100178.53;5059350;28;20040;-81
2022/11/21 09:25:01;;;;;;;19.58;5.07;;;;;;;4.49;100.00;100186.03;5059347;28;20032;-83
2022/11/21 09:27:26;;;;;;;18.42;6.30;;;;;;;4.53;100.00;100181.09;5042718;28;20043;-85
2022/11/21 09:29:52;;;;;;;19.07;6.57;;;;;;;4.50;100.00;100182.31;5076077;28;20059;-85
2022/11/21 09:32:17;;;;;;;16.20;5.97;;;;;;;4.50;100.00;100176.09;5076136;28;20028;-83
2022/11/21 09:34:42;;;;;;;18.40;6.07;;;;;;;4.51;100.00;100170.53;5059956;28;20135;-82
2022/11/21 09:37:08;;;;;;;14.60;5.53;;;;;;;4.52;100.00;100157.94;5059405;28;20460;-85
2022/11/21 09:39:33;;;;;;;14.43;6.38;;;;;;;4.54;100.00;100145.97;5075534;28;20476;-84
2022/11/21 09:41:59;;;;;;;21.33;6.87;;;;;;;4.57;100.00;100150.13;5058740;28;20467;-84
2022/11/21 09:44:55;;;;;;;17.13;5.20;;;;;;;4.63;100.00;100145.84;5075120;28;20396;-85
2022/11/21 09:47:27;;;;;;;17.25;5.50;;;;;;;4.61;100.00;100150.59;5075575;28;20051;-85
2022/11/21 09:50:00;;;;;;;15.70;5.50;;;;;;;4.67;100.00;100156.00;5075522;28;20031;-85
2022/11/21 09:52:49;;;;;;;16.67;5.45;;;;;;;4.74;100.00;100145.31;5075882;28;20032;-85
2022/11/21 09:55:34;;;;;;;13.18;5.15;;;;;;;4.79;100.00;100140.19;5093817;28;20035;-85
2022/11/21 09:58:03;;;;;;;15.75;5.05;;;;;;;4.84;100.00;100139.59;5093410;28;20236;-86
2022/11/21 10:00:31;;;;;;;17.52;4.90;;;;;;;4.91;100.00;100130.53;5075845;28;20469;-85
2022/11/21 10:02:58;;;;;;;15.02;4.50;;;;;;;4.99;100.00;100124.22;5076277;28;20040;-85
2022/11/21 10:05:31;;;;;;;13.68;4.60;;;;;;;5.10;100.00;100129.03;5076367;28;20418;-85
2022/11/21 10:08:04;;;;;;;11.77;5.00;;;;;;;5.13;100.00;100127.81;5075527;28;20040;-85
2022/11/21 10:10:41;;;;;;;18.70;4.88;;;;;;;5.13;100.00;100129.69;5075121;28;20107;-85
2022/11/21 10:13:53;;;;;;;21.67;4.85;;;;;;;5.12;100.00;100122.63;5075602;28;20036;-85
2022/11/21 10:16:39;;;;;;;11.27;4.03;;;;;;;5.17;100.00;100118.31;5039082;28;20036;-85
2022/11/21 10:19:30;;;;;;;10.80;3.88;;;;;;;5.32;100.00;100112.81;5075576;28;20479;-85
2022/11/21 10:22:16;;;;;;;11.35;3.78;;;;;;;5.40;100.00;100106.44;5075383;28;20094;-85
2022/11/21 10:24:42;;;;;;;18.83;4.50;;;;;;;5.51;100.00;100096.97;5093520;28;20047;-85
2022/11/21 10:27:28;;;;;;;14.17;3.70;;;;;;;5.63;100.00;100098.06;5075277;28;20036;-85
2022/11/21 10:30:04;;;;;;;9.93;3.22;;;;;;;5.66;100.00;100088.75;5093860;28;20028;-85
2022/11/21 10:32:40;;;;;;;14.80;3.75;;;;;;;5.62;100.00;100078.41;5075002;28;20040;-85
2022/11/21 10:35:22;;;;;;;9.20;3.75;;;;;;;5.70;100.00;100082.75;5075247;28;20089;-85
2022/11/21 10:37:50;;;;;;;9.93;3.03;;;;;;;5.82;100.00;100082.16;5074885;28;20086;-85
2022/11/21 10:40:36;;;;;;;11.27;3.20;;;;;;;5.86;100.00;100076.19;5093108;28;20383;-84
2022/11/21 10:46:08;;;;;;;13.20;3.22;;;;;;;6.17;100.00;100072.13;5092819;28;20055;-85
2022/11/21 10:48:33;;;;;;;11.07;3.00;;;;;;;6.47;100.00;100058.25;5074899;28;20040;-85
2022/11/21 10:51:27;;;;;;;15.00;2.67;;;;;;;6.70;100.00;100068.59;5093170;28;20411;-84
2022/11/21 10:56:53;;;;;;;16.40;2.90;;;;;;;7.02;100.00;100050.69;5095762;28;20090;-85
2022/11/21 10:59:26;;;;;;;9.60;2.80;;;;;;;7.14;100.00;100056.25;5078577;28;20032;-84
2022/11/21 11:02:19;;;;;;;7.65;2.38;;;;;;;7.12;100.00;100044.88;5078713;28;20051;-85
2022/11/21 11:04:44;;;;;;;15.88;2.70;;;;;;;7.19;100.00;100048.38;5078149;28;20032;-85
2022/11/21 11:07:31;;;;;;;7.63;2.50;;;;;;;7.25;100.00;100035.91;5061817;28;20059;-85
2022/11/21 11:10:22;;;;;;;12.07;2.85;;;;;;;7.36;100.00;100034.41;5078214;28;20032;-84
2022/11/21 11:15:38;;;;;;;9.63;2.15;;;;;;;7.75;100.00;100023.63;5097047;28;20046;-85
2022/11/21 11:18:05;;;;;;;8.40;2.80;;;;;;;8.00;100.00;100018.25;5079337;28;20036;-85
2022/11/21 11:20:39;;;;;;;8.90;2.80;;;;;;;8.39;100.00;100009.00;5077863;28;20043;-88
2022/11/21 11:23:18;;;;;;;11.30;2.42;;;;;;;8.88;100.00;100003.78;5079288;28;20048;-84
2022/11/21 11:25:50;;;;;;;9.45;2.38;;;;;;;9.16;95.33;100004.31;5078100;28;20036;-83
2022/11/21 11:28:18;;;;;;;7.78;2.10;;;;;;;9.37;92.93;99987.56;5078002;28;20093;-83
2022/11/21 11:30:43;;;;;;;7.88;2.92;;;;;;;9.99;88.66;99994.63;5078089;28;20043;-82
2022/11/21 11:33:48;;;;;;;7.83;2.27;;;;;;;11.62;89.56;99982.19;5078042;28;20476;-84
2022/11/21 11:36:22;;;;;;;7.35;1.80;;;;;;;13.33;79.38;99970.88;5078251;28;20043;-83
2022/11/21 11:38:56;;;;;;;8.18;2.00;;;;;;;14.62;69.59;99963.84;5078212;28;20459;-83
2022/11/21 11:48:08;;;;;;;7.47;1.58;;;;;;;16.72;63.73;99937.94;5096001;28;20066;-83